Overview Statistics Trail Chart Weather Telemetry Raw packets
 

This is the latest recevied weather packets stored in our database for station/object 4S6DRJ-13. If no packets are shown the sender has not sent any weather packets the latest 10 day(s).

<< 148 149 150 151 152 153 154 >>
Time Temp. Humidity Pressure Rain* Wind** Luminosity Snow
1788239540 30.56° C 73% 1009.5 hPa 0 mm 4.47 m/s, 86° 483 W/m² -
1788239479 30.56° C 73% 1009.6 hPa 0 mm 2.24 m/s, 187° 534 W/m² -
1788239417 30.56° C 72% 1009.4 hPa 0 mm 4.02 m/s, 192° 308 W/m² -
1788239357 31.11° C 72% 1009.4 hPa 0 mm 3.58 m/s, 199° 254 W/m² -
1788239295 31.11° C 73% 1009.6 hPa 0 mm 1.79 m/s, 289° 219 W/m² -
1788239234 31.11° C 73% 1009.6 hPa 0 mm 1.79 m/s, 282° 193 W/m² -
1788239173 31.11° C 72% 1009.5 hPa 0 mm 1.34 m/s, 266° 189 W/m² -
1788239112 31.11° C 72% 1009.6 hPa 0 mm 1.79 m/s, 264° 191 W/m² -
1788239052 31.11° C 71% 1009.6 hPa 0 mm 2.24 m/s, 252° 1101 W/m² -
1788238991 31.11° C 71% 1009.5 hPa 0 mm 2.24 m/s, 165° 1124 W/m² -
1788238930 31.11° C 72% 1009.5 hPa 0 mm 2.24 m/s, 276° 505 W/m² -
1788238868 31.11° C 72% 1009.5 hPa 0 mm 1.34 m/s, 243° 1111 W/m² -
1788238807 31.11° C 71% 1009.7 hPa 0 mm 2.24 m/s, 204° 1127 W/m² -
1788238747 30.56° C 69% 1009.7 hPa 0 mm 4.92 m/s, 231° 1119 W/m² -
1788238686 30.56° C 72% 1009.6 hPa 0 mm 0.89 m/s, 211° 813 W/m² -
1788238624 30.56° C 72% 1009.7 hPa 0 mm 2.24 m/s, 221° 1111 W/m² -
1788238564 30.56° C 72% 1009.7 hPa 0 mm 1.79 m/s, 296° 1113 W/m² -
1788238503 30.56° C 72% 1009.7 hPa 0 mm 2.24 m/s, 238° 1112 W/m² -
1788238442 30.56° C 72% 1009.5 hPa 0 mm 1.79 m/s, 210° 219 W/m² -
1788238381 30.56° C 72% 1009.5 hPa 0 mm 1.79 m/s, 113° 272 W/m² -
1788238320 30.56° C 74% 1009.6 hPa 0 mm 0.89 m/s, 207° 414 W/m² -
1788238258 30.56° C 74% 1009.6 hPa 0 mm 0.45 m/s, 203° 1120 W/m² -
1788238198 30.56° C 74% 1009.6 hPa 0 mm 1.79 m/s, 225° 1113 W/m² -
1788238136 30.56° C 74% 1009.7 hPa 0 mm 1.79 m/s, 205° 1108 W/m² -
1788238076 30.56° C 74% 1009.5 hPa 0 mm 1.34 m/s, 221° 1108 W/m² -

* Rain latest hour (hover to see other rain measurements)
** Current wind speed in m/s (hover to see current wind gust speed)